Elizabethtown, Pennsylvania
Current Conditions -  °F | °C
As of 4:56 AM on Sunday 21 Dec 2014 (Local Time) from KMDT Reporting Station
Broken Clouds Broken Clouds  
Wind Chill: 28°   Ceiling: 3500
Heat Index: 28°   Visibility: 9mi
Dew Point: 22°   Wind: 3mph
Humidity: 78%   Direction: 340°NNW
Pressure: 30.29"   Gusts: NA
Location:  40.15°N, 76.61°W
Report Text: KMDT 210956Z 34003KT 9SM BKN035 M02/M06 A3029 RMK AO2 SLP262 T10221056 $
Loading
Personal Weather Stations






























Interactive Weather Map New forecast layout! Learn more

10-Day Weather Forecast

Advertisements
Track Severe Weather on mobile